Etusivu
METAR-TAF:

METAR-TAF

Lentoasemat :

Sir Seretse Khaman kansainvälinen lentoasema

Gaborone, Botswana

Leveyspiiri: 24-13S, Pituuspiiri: 025-55E, korkeus merenpinnasta: 1005 m

Tämänhetkinen sää

Tämä raportti tehtiin 44 minuuttia sitten, kello 04.00 UTC
Tuuli 6 kn lännestä/luoteesta
Lämpötila 20°C
Kosteus 56%
Ilmanpaine 1015 hPa
Näkyvyys 10 km tai enemmän
ei pilviä alle 1500 m:ssä eikä cumulonimbus-pilviä

METAR: FBSK 260400Z 30006KT CAVOK 20/11 Q1015 NOSIG

Aika: 06:44 (04:44 UTC)

Sääennuste

Tämä raportti tehtiin 7 tuntia ja 44 minuuttia sitten, kello 21.00 UTC
Ennuste voimassa 26. päivästä klo 00 UTC - 27. päivään klo 06 UTC
Tuuli 8 kn lounaasta
Näkyvyys 10 km tai enemmän
ei pilviä alle 1500 m:ssä eikä cumulonimbus-pilviä
Tulossa
27. päivästä klo 03 UTC - 27. päivään klo 05 UTC
Tuuli 12 kn koillisesta

TAF: FBSK 252100Z 2600/2706 22008KT CAVOK BECMG 2703/2705 04012KT

Säähavainnot ja -ennusteet yli 4000 lentoasemalta (METAR- ja TAF-raportit).

Käytössä olevat sääasemat on merkitty karttaan keltaisilla ja punaisilla pisteillä.

Aseta hiiri pisteen päälle nähdäksesi sääaseman nimen.

Klikkaa sitten nähdäksesi säähavainnot ja -ennusteet.

Kartan vaihtaminen: klikkaa mustalla rastilla varustettuja vihreitä pisteitä, niin voit zoomata sisään; viivalla varustettua vihreää pistettä, niin voit zoomata ulos tai vihreitä nuolia, niin pääset viereisille kartoille.


METAR-TAF: